createdAt,value
2018-10-18T00:00:23.737Z,2.30
2018-10-18T00:02:51.372Z,2.30
2018-10-18T00:05:18.815Z,2.00
2018-10-18T00:07:46.337Z,2.50
2018-10-18T00:10:14.147Z,2.70
2018-10-18T00:12:41.646Z,2.30
2018-10-18T00:15:09.617Z,2.27
2018-10-18T00:17:42.692Z,1.90
2018-10-18T00:20:10.546Z,2.07
2018-10-18T00:22:38.396Z,2.17
2018-10-18T00:25:06.048Z,2.20
2018-10-18T00:27:34.009Z,2.13
2018-10-18T00:30:01.691Z,2.30
2018-10-18T00:32:29.097Z,1.80
2018-10-18T00:34:56.961Z,2.20
2018-10-18T00:37:24.516Z,2.20
2018-10-18T00:39:51.924Z,2.07
2018-10-18T00:42:19.612Z,1.73
2018-10-18T00:44:47.484Z,1.93
2018-10-18T00:47:14.955Z,2.10
2018-10-18T00:49:42.908Z,1.83
2018-10-18T00:52:10.731Z,1.63
2018-10-18T00:54:38.168Z,2.10
2018-10-18T00:57:05.773Z,2.00
2018-10-18T00:59:33.412Z,1.80
2018-10-18T01:02:00.866Z,1.90
2018-10-18T01:04:28.661Z,1.80
2018-10-18T01:06:56.998Z,2.00
2018-10-18T01:09:24.443Z,1.70
2018-10-18T01:11:52.036Z,2.20
2018-10-18T01:14:19.728Z,1.80
2018-10-18T01:16:51.478Z,1.80
2018-10-18T01:19:19.116Z,1.70
2018-10-18T01:21:46.835Z,2.27
2018-10-18T01:24:14.348Z,2.40
2018-10-18T01:26:42.156Z,2.20
2018-10-18T01:29:09.946Z,2.23
2018-10-18T01:31:37.407Z,2.20
2018-10-18T01:34:05.184Z,2.00
2018-10-18T01:36:32.966Z,2.00
2018-10-18T01:39:00.478Z,2.30
2018-10-18T01:41:28.497Z,2.07
2018-10-18T01:43:56.592Z,1.77
2018-10-18T01:46:24.086Z,2.03
2018-10-18T01:48:52.051Z,2.20
2018-10-18T01:51:19.782Z,2.00
2018-10-18T01:53:47.210Z,2.20
2018-10-18T01:56:15.056Z,2.30
2018-10-18T01:58:42.617Z,1.97
2018-10-18T02:01:10.115Z,2.10
2018-10-18T02:03:37.656Z,1.87
2018-10-18T02:06:05.878Z,1.53
2018-10-18T02:08:33.342Z,2.10
2018-10-18T02:11:01.104Z,1.47
2018-10-18T02:13:28.823Z,1.60
2018-10-18T02:15:56.307Z,1.93
2018-10-18T02:18:23.929Z,2.23
2018-10-18T02:20:51.694Z,1.80
2018-10-18T02:23:19.219Z,2.07
2018-10-18T02:25:46.926Z,1.60
2018-10-18T02:28:14.574Z,2.07
2018-10-18T02:30:42.105Z,1.43
2018-10-18T02:33:09.824Z,1.70
2018-10-18T02:35:37.496Z,1.80
2018-10-18T02:38:05.099Z,1.80
2018-10-18T02:40:32.762Z,2.07
2018-10-18T02:43:00.469Z,1.60
2018-10-18T02:45:27.934Z,2.33
2018-10-18T02:47:55.673Z,1.87
2018-10-18T02:50:23.373Z,1.50
2018-10-18T02:52:50.887Z,1.53
2018-10-18T02:55:18.563Z,1.60
2018-10-18T02:57:46.446Z,1.90
2018-10-18T03:00:13.947Z,1.70
2018-10-18T03:02:41.534Z,1.40
2018-10-18T03:05:09.238Z,1.23
2018-10-18T03:07:36.649Z,1.20
2018-10-18T03:10:05.720Z,1.70
2018-10-18T03:12:33.370Z,1.50
2018-10-18T03:15:00.783Z,1.77
2018-10-18T03:17:28.527Z,1.20
2018-10-18T03:19:56.128Z,1.40
2018-10-18T03:22:23.544Z,1.40
2018-10-18T03:24:51.158Z,1.43
2018-10-18T03:27:18.812Z,1.53
2018-10-18T03:29:46.237Z,1.40
2018-10-18T03:32:13.846Z,1.23
2018-10-18T03:34:41.712Z,1.10
2018-10-18T03:37:09.158Z,1.10
2018-10-18T03:39:36.849Z,1.20
2018-10-18T03:42:04.733Z,1.10
2018-10-18T03:44:32.138Z,1.10
2018-10-18T03:46:59.811Z,1.10
2018-10-18T03:49:27.544Z,0.93
2018-10-18T03:51:55.033Z,1.20
2018-10-18T03:54:22.584Z,1.10
2018-10-18T03:56:50.393Z,0.77
2018-10-18T03:59:17.904Z,0.73
2018-10-18T04:01:45.609Z,1.00
2018-10-18T04:04:13.360Z,0.70
2018-10-18T04:06:40.880Z,1.00
2018-10-18T04:09:09.375Z,1.00
2018-10-18T04:15:08.057Z,0.93
2018-10-18T04:17:35.669Z,0.83
2018-10-18T04:20:03.530Z,0.83
2018-10-18T04:22:31.424Z,1.10
2018-10-18T04:24:58.878Z,1.10
2018-10-18T04:27:26.591Z,1.00
2018-10-18T04:29:54.322Z,0.90
2018-10-18T04:32:21.855Z,1.20
2018-10-18T04:34:49.835Z,1.10
2018-10-18T04:37:17.403Z,1.20
2018-10-18T04:39:44.865Z,1.40
2018-10-18T04:42:12.595Z,1.50
2018-10-18T04:44:40.283Z,0.90
2018-10-18T04:47:07.744Z,1.20
2018-10-18T04:49:35.446Z,1.20
2018-10-18T04:52:03.149Z,1.00
2018-10-18T04:54:30.643Z,1.10
2018-10-18T04:56:58.361Z,1.20
2018-10-18T04:59:26.281Z,0.90
2018-10-18T05:01:53.683Z,0.80
2018-10-18T05:04:21.393Z,1.17
2018-10-18T05:06:49.087Z,1.30
2018-10-18T05:09:16.549Z,0.90
2018-10-18T05:11:44.479Z,1.10
2018-10-18T05:14:12.234Z,1.17
2018-10-18T05:16:39.683Z,1.30
2018-10-18T05:19:07.582Z,1.20
2018-10-18T05:21:35.218Z,1.10
2018-10-18T05:24:02.995Z,1.10
2018-10-18T05:26:30.690Z,1.20
2018-10-18T05:28:58.247Z,1.03
2018-10-18T05:31:25.736Z,1.10
2018-10-18T05:33:53.416Z,1.13
2018-10-18T05:36:21.049Z,1.10
2018-10-18T05:38:48.499Z,0.90
2018-10-18T05:41:16.131Z,0.70
2018-10-18T05:43:43.830Z,0.90
2018-10-18T05:46:11.280Z,0.90
2018-10-18T05:48:39.014Z,0.83
2018-10-18T05:51:06.729Z,0.70
2018-10-18T05:53:34.281Z,0.60
2018-10-18T05:56:01.805Z,0.60
2018-10-18T05:58:29.501Z,0.60
2018-10-18T06:00:57.107Z,0.53
2018-10-18T06:03:24.775Z,0.70
2018-10-18T06:05:52.355Z,0.60
2018-10-18T06:08:19.860Z,0.50
2018-10-18T06:10:59.028Z,0.50
2018-10-18T06:13:26.545Z,0.70
2018-10-18T06:15:53.986Z,0.80
2018-10-18T06:18:21.893Z,0.57
2018-10-18T06:20:49.352Z,1.40
2018-10-18T06:23:16.861Z,1.30
2018-10-18T06:25:45.136Z,1.37
2018-10-18T06:28:12.615Z,0.87
2018-10-18T06:30:40.145Z,1.10
2018-10-18T06:33:08.032Z,0.93
2018-10-18T06:35:35.574Z,0.60
2018-10-18T06:38:03.101Z,0.80
2018-10-18T06:40:30.985Z,0.70
2018-10-18T06:42:58.706Z,0.80
2018-10-18T06:45:26.133Z,0.67
2018-10-18T06:47:54.153Z,0.60
2018-10-18T06:50:21.564Z,1.17
2018-10-18T06:52:49.060Z,0.80
2018-10-18T06:55:17.201Z,1.10
2018-10-18T06:57:44.935Z,1.07
2018-10-18T07:00:19.152Z,1.10
2018-10-18T07:02:46.827Z,1.27
2018-10-18T07:05:14.934Z,0.80
2018-10-18T07:07:43.057Z,0.73
2018-10-18T07:10:10.714Z,1.03
2018-10-18T07:12:38.722Z,0.70
2018-10-18T07:15:07.249Z,0.83
2018-10-18T07:17:35.023Z,0.90
2018-10-18T07:20:02.536Z,0.90
2018-10-18T07:22:30.374Z,1.17
2018-10-18T07:24:58.035Z,0.87
2018-10-18T07:27:25.521Z,1.00
2018-10-18T07:29:53.078Z,1.03
2018-10-18T07:32:20.842Z,0.63
2018-10-18T07:34:48.327Z,0.97
2018-10-18T07:37:15.979Z,0.57
2018-10-18T07:39:43.690Z,0.50
2018-10-18T07:42:11.244Z,0.70
2018-10-18T07:44:38.797Z,0.77
2018-10-18T07:47:07.548Z,0.80
2018-10-18T07:49:35.035Z,0.70
2018-10-18T07:52:02.754Z,0.67
2018-10-18T07:54:30.489Z,0.80
2018-10-18T07:56:57.969Z,0.60
2018-10-18T07:59:25.985Z,0.67
2018-10-18T08:01:53.720Z,0.80
2018-10-18T08:04:21.207Z,0.60
2018-10-18T08:06:48.838Z,0.93
2018-10-18T08:09:16.503Z,0.90
2018-10-18T08:11:43.970Z,0.40
2018-10-18T08:14:11.775Z,0.50
2018-10-18T08:16:39.842Z,0.50
2018-10-18T08:19:07.528Z,0.60
2018-10-18T08:21:35.512Z,0.50
2018-10-18T08:24:03.385Z,0.53
2018-10-18T08:26:30.826Z,0.50
2018-10-18T08:28:58.593Z,0.53
2018-10-18T08:31:26.281Z,0.40
2018-10-18T08:33:53.716Z,0.60
2018-10-18T08:36:21.473Z,0.40
2018-10-18T08:38:49.134Z,0.80
2018-10-18T08:41:16.703Z,0.70
2018-10-18T08:43:44.428Z,0.30
2018-10-18T08:46:12.093Z,0.47
2018-10-18T08:48:39.527Z,0.50
2018-10-18T08:51:07.153Z,0.70
2018-10-18T08:53:34.725Z,0.37
2018-10-18T08:56:02.235Z,0.60
2018-10-18T08:58:29.963Z,0.33
2018-10-18T09:00:57.810Z,0.73
2018-10-18T09:03:25.298Z,0.50
2018-10-18T09:05:53.000Z,0.50
2018-10-18T09:08:20.734Z,0.50
2018-10-18T09:10:48.212Z,0.80
2018-10-18T09:13:15.982Z,0.50
2018-10-18T09:15:43.673Z,0.50
2018-10-18T09:18:11.160Z,0.50
2018-10-18T09:20:38.787Z,0.80
2018-10-18T09:23:06.697Z,0.50
2018-10-18T09:25:34.167Z,0.60
2018-10-18T09:28:02.240Z,0.60
2018-10-18T09:30:29.957Z,0.53
2018-10-18T09:32:57.365Z,0.50
2018-10-18T09:35:24.981Z,0.70
2018-10-18T09:37:52.680Z,0.40
2018-10-18T09:40:20.188Z,0.50
2018-10-18T09:42:48.207Z,0.50
2018-10-18T09:45:15.937Z,0.50
2018-10-18T09:47:43.376Z,0.50
2018-10-18T09:50:11.918Z,0.43
2018-10-18T09:52:39.692Z,0.53
2018-10-18T09:55:08.645Z,0.43
2018-10-18T09:57:36.369Z,0.83
2018-10-18T10:00:04.391Z,0.30
2018-10-18T10:03:40.301Z,0.50
2018-10-18T10:06:07.983Z,0.43
2018-10-18T10:08:35.430Z,0.40
2018-10-18T10:11:02.980Z,0.60
2018-10-18T10:13:30.805Z,0.50
2018-10-18T10:15:58.332Z,0.50
2018-10-18T10:18:26.078Z,0.40
2018-10-18T10:20:53.810Z,0.70
2018-10-18T10:23:21.264Z,0.40
2018-10-18T10:25:48.829Z,0.77
2018-10-18T10:28:16.576Z,0.40
2018-10-18T10:30:44.034Z,0.30
2018-10-18T10:33:11.746Z,0.30
2018-10-18T10:35:39.940Z,0.40
2018-10-18T10:38:07.336Z,0.40
2018-10-18T10:40:35.003Z,0.40
2018-10-18T10:43:02.726Z,0.30
2018-10-18T10:45:30.116Z,0.40
2018-10-18T10:47:58.047Z,0.40
2018-10-18T10:50:25.812Z,0.40
2018-10-18T10:52:53.288Z,0.40
2018-10-18T10:55:21.037Z,0.67
2018-10-18T10:57:48.617Z,0.30
2018-10-18T11:00:26.151Z,0.43
2018-10-18T11:02:53.797Z,0.20
2018-10-18T11:05:21.271Z,0.20
2018-10-18T11:07:48.981Z,0.40
2018-10-18T11:10:16.602Z,0.30
2018-10-18T11:12:44.090Z,0.30
2018-10-18T11:15:12.896Z,0.20
2018-10-18T11:17:40.490Z,0.30
2018-10-18T11:20:07.988Z,0.57
2018-10-18T11:22:35.671Z,0.30
2018-10-18T11:25:03.743Z,0.20
2018-10-18T11:27:31.213Z,0.30
2018-10-18T11:29:58.998Z,0.40
2018-10-18T11:32:26.713Z,0.30
2018-10-18T11:34:54.139Z,0.30
2018-10-18T11:37:53.037Z,0.73
2018-10-18T11:40:20.536Z,0.20
2018-10-18T11:42:48.037Z,0.20
2018-10-18T11:45:16.052Z,0.17
2018-10-18T11:47:43.487Z,0.20
2018-10-18T11:50:11.020Z,0.33
2018-10-18T11:52:38.911Z,0.40
2018-10-18T11:55:06.440Z,0.30
2018-10-18T11:57:33.867Z,0.20
2018-10-18T12:00:01.824Z,0.40
2018-10-18T12:02:29.344Z,0.20
2018-10-18T12:04:56.828Z,0.30
2018-10-18T12:07:24.577Z,0.20
2018-10-18T12:09:52.067Z,0.20
2018-10-18T12:12:19.591Z,0.27
2018-10-18T12:14:47.575Z,0.13
2018-10-18T12:17:15.151Z,0.27
2018-10-18T12:19:42.589Z,0.30
2018-10-18T12:22:10.344Z,0.20
2018-10-18T12:24:37.881Z,0.50
2018-10-18T12:27:05.781Z,0.70
2018-10-18T12:29:33.679Z,0.33
2018-10-18T12:32:01.114Z,0.40
2018-10-18T12:34:28.780Z,0.23
2018-10-18T12:36:57.140Z,0.30
2018-10-18T12:39:24.579Z,0.43
2018-10-18T12:41:52.077Z,0.50
2018-10-18T12:44:20.018Z,0.20
2018-10-18T12:46:47.449Z,0.40
2018-10-18T12:49:14.865Z,0.60
2018-10-18T12:51:42.756Z,0.50
2018-10-18T12:54:10.290Z,0.47
2018-10-18T12:56:37.703Z,0.30
2018-10-18T12:59:05.757Z,0.30
2018-10-18T13:01:33.210Z,0.33
2018-10-18T13:04:00.703Z,0.50
2018-10-18T13:06:28.480Z,0.30
2018-10-18T13:08:55.922Z,0.50
2018-10-18T13:11:23.431Z,0.40
2018-10-18T13:13:51.445Z,0.53
2018-10-18T13:16:18.917Z,0.33
2018-10-18T13:18:46.519Z,0.30
2018-10-18T13:21:14.233Z,0.20
2018-10-18T13:23:41.721Z,0.30
2018-10-18T13:26:09.312Z,0.20
2018-10-18T13:28:37.297Z,0.20
2018-10-18T13:31:05.006Z,0.30
2018-10-18T13:33:32.424Z,0.20
2018-10-18T13:36:00.353Z,0.30
2018-10-18T13:38:27.842Z,0.20
2018-10-18T13:40:55.437Z,0.10
2018-10-18T13:43:23.133Z,0.20
2018-10-18T13:45:50.588Z,0.30
2018-10-18T13:48:18.178Z,0.40
2018-10-18T13:50:46.061Z,0.10
2018-10-18T13:53:13.487Z,0.20
2018-10-18T13:55:40.903Z,0.40
2018-10-18T13:58:08.641Z,0.20
2018-10-18T14:00:36.120Z,0.20
2018-10-18T14:03:03.753Z,0.10
2018-10-18T14:05:31.743Z,0.33
2018-10-18T14:07:59.271Z,0.40
2018-10-18T14:10:26.694Z,0.50
2018-10-18T14:12:54.641Z,0.30
2018-10-18T14:15:22.181Z,0.60
2018-10-18T14:17:49.699Z,0.30
2018-10-18T14:20:17.515Z,0.30
2018-10-18T14:22:44.938Z,0.13
2018-10-18T14:25:12.485Z,0.40
2018-10-18T14:27:40.388Z,0.30
2018-10-18T14:30:09.331Z,1.07
2018-10-18T14:32:37.007Z,0.30
2018-10-18T14:35:07.167Z,0.20
2018-10-18T14:37:34.654Z,0.30
2018-10-18T14:40:02.154Z,0.27
2018-10-18T14:42:29.902Z,0.20
2018-10-18T14:44:57.408Z,0.30
2018-10-18T14:47:25.035Z,0.30
2018-10-18T14:49:52.889Z,0.40
2018-10-18T14:52:20.488Z,0.43
2018-10-18T14:54:47.981Z,0.30
2018-10-18T14:57:16.245Z,0.33
2018-10-18T14:59:43.837Z,0.50
2018-10-18T15:02:11.661Z,0.40
2018-10-18T15:04:39.683Z,1.20
2018-10-18T15:07:07.700Z,0.40
2018-10-18T15:09:35.342Z,0.40
2018-10-18T15:12:03.036Z,0.63
2018-10-18T15:14:30.529Z,0.40
2018-10-18T15:16:58.059Z,0.50
2018-10-18T15:19:26.305Z,0.30
2018-10-18T15:21:53.807Z,0.23
2018-10-18T15:24:21.315Z,0.50
2018-10-18T15:26:49.260Z,0.50
2018-10-18T15:29:16.768Z,0.40
2018-10-18T15:31:44.255Z,0.20
2018-10-18T15:34:12.074Z,0.53
2018-10-18T15:36:39.564Z,0.60
2018-10-18T15:39:08.512Z,0.50
2018-10-18T15:41:36.732Z,0.50
2018-10-18T15:44:04.395Z,0.40
2018-10-18T15:46:31.870Z,0.40
2018-10-18T15:48:59.773Z,0.37
2018-10-18T15:51:27.254Z,0.60
2018-10-18T15:53:54.931Z,1.00
2018-10-18T15:56:22.882Z,0.40
2018-10-18T15:58:50.346Z,0.40
2018-10-18T16:01:17.818Z,0.20
2018-10-18T16:03:45.497Z,0.37
2018-10-18T16:06:13.010Z,0.40
2018-10-18T16:08:40.583Z,0.30
2018-10-18T16:11:08.662Z,0.20
2018-10-18T16:13:37.056Z,0.40
2018-10-18T16:16:04.946Z,0.20
2018-10-18T16:18:32.751Z,0.30
2018-10-18T16:21:00.325Z,0.33
2018-10-18T16:23:27.846Z,0.60
2018-10-18T16:25:55.539Z,0.47
2018-10-18T16:28:23.057Z,0.30
2018-10-18T16:30:50.487Z,0.30
2018-10-18T16:33:18.407Z,0.20
2018-10-18T16:35:45.958Z,0.23
2018-10-18T16:38:13.466Z,0.37
2018-10-18T16:40:41.198Z,0.50
2018-10-18T16:43:08.722Z,0.30
2018-10-18T16:45:36.216Z,0.20
2018-10-18T16:48:03.889Z,0.27
2018-10-18T16:50:31.382Z,0.10
2018-10-18T16:52:58.846Z,0.67
2018-10-18T16:55:26.553Z,0.30
2018-10-18T16:57:54.072Z,0.13
2018-10-18T17:00:21.671Z,0.27
2018-10-18T17:02:49.349Z,0.30
2018-10-18T17:05:16.922Z,0.20
2018-10-18T17:07:44.391Z,0.13
2018-10-18T17:10:12.318Z,0.10
2018-10-18T17:12:39.807Z,0.30
2018-10-18T17:15:07.490Z,0.30
2018-10-18T17:17:35.434Z,0.20
2018-10-18T17:20:02.992Z,0.20
2018-10-18T17:22:31.430Z,0.30
2018-10-18T17:24:59.160Z,0.40
2018-10-18T17:27:26.745Z,0.40
2018-10-18T17:29:54.203Z,0.17
2018-10-18T17:32:21.994Z,0.30
2018-10-18T17:34:49.377Z,0.20
2018-10-18T17:37:16.915Z,0.20
2018-10-18T17:39:44.690Z,1.37
2018-10-18T17:42:12.242Z,0.50
2018-10-18T17:44:39.749Z,0.30
2018-10-18T17:47:07.668Z,0.30
2018-10-18T17:49:35.099Z,0.20
2018-10-18T17:52:02.605Z,0.20
2018-10-18T17:54:30.373Z,0.20
2018-10-18T17:56:57.858Z,0.20
2018-10-18T17:59:25.351Z,0.20
2018-10-18T18:01:53.110Z,0.23
2018-10-18T18:04:20.553Z,0.23
2018-10-18T18:06:48.043Z,0.20
2018-10-18T18:09:16.007Z,0.10
2018-10-18T18:11:43.408Z,0.30
2018-10-18T18:14:10.898Z,0.10
2018-10-18T18:16:38.699Z,0.10
2018-10-18T18:19:06.154Z,0.30
2018-10-18T18:21:33.613Z,0.20
2018-10-18T18:24:01.514Z,0.10
2018-10-18T18:26:32.716Z,0.17
2018-10-18T18:28:56.506Z,0.10
2018-10-18T18:31:24.492Z,0.10
2018-10-18T18:33:51.991Z,0.27
2018-10-18T18:36:19.453Z,0.10
2018-10-18T18:38:47.404Z,0.10
2018-10-18T18:41:14.878Z,0.10
2018-10-18T18:43:42.327Z,0.10
2018-10-18T18:46:10.084Z,0.10
2018-10-18T18:48:37.567Z,0.10
2018-10-18T18:51:05.227Z,0.23
2018-10-18T18:53:33.093Z,0.00
2018-10-18T18:56:00.590Z,0.13
2018-10-18T18:58:28.006Z,0.23
2018-10-18T19:00:55.753Z,0.20
2018-10-18T19:03:23.199Z,0.20
2018-10-18T19:05:50.725Z,0.13
2018-10-18T19:08:18.343Z,0.13
2018-10-18T19:10:45.844Z,0.20
2018-10-18T19:13:13.355Z,0.17
2018-10-18T19:15:41.364Z,0.10
2018-10-18T19:18:08.856Z,0.20
2018-10-18T19:20:37.223Z,0.27
2018-10-18T19:23:05.300Z,0.23
2018-10-18T19:25:32.777Z,0.30
2018-10-18T19:28:00.233Z,0.30
2018-10-18T19:30:28.029Z,0.23
2018-10-18T19:32:55.558Z,0.20
2018-10-18T19:35:23.063Z,0.20
2018-10-18T19:37:50.794Z,0.10
2018-10-18T19:40:18.267Z,0.20
2018-10-18T19:42:45.721Z,0.20
2018-10-18T19:45:13.596Z,0.20
2018-10-18T19:47:41.131Z,0.20
2018-10-18T19:50:11.641Z,0.30
2018-10-18T19:52:39.478Z,0.20
2018-10-18T19:55:07.189Z,0.10
2018-10-18T19:57:34.641Z,0.03
2018-10-18T20:00:02.492Z,0.10
2018-10-18T20:02:29.991Z,0.10
2018-10-18T20:04:57.478Z,0.20
2018-10-18T20:07:25.231Z,0.10
2018-10-18T20:09:52.676Z,0.30
2018-10-18T20:12:20.101Z,0.10
2018-10-18T20:14:47.728Z,0.17
2018-10-18T20:17:15.163Z,0.10
2018-10-18T20:19:42.695Z,0.20
2018-10-18T20:22:12.182Z,0.00
2018-10-18T20:24:39.638Z,0.10
2018-10-18T20:27:07.593Z,0.13
2018-10-18T20:29:35.659Z,0.00
2018-10-18T20:32:03.134Z,0.00
2018-10-18T20:34:30.605Z,0.10
2018-10-18T20:36:58.469Z,0.10
2018-10-18T20:39:25.980Z,0.10
2018-10-18T20:41:53.467Z,0.13
2018-10-18T20:44:21.133Z,0.00
2018-10-18T20:46:48.629Z,0.10
2018-10-18T20:49:16.131Z,0.10
2018-10-18T20:51:43.918Z,0.10
2018-10-18T20:54:11.471Z,0.20
2018-10-18T20:56:38.929Z,0.10
2018-10-18T20:59:06.652Z,0.10
2018-10-18T21:01:34.114Z,0.10
2018-10-18T21:04:01.667Z,0.20
2018-10-18T21:06:29.408Z,0.10
2018-10-18T21:08:56.951Z,0.10
2018-10-18T21:11:24.401Z,0.20
2018-10-18T21:13:52.174Z,0.17
2018-10-18T21:16:19.668Z,0.10
2018-10-18T21:18:47.103Z,0.13
2018-10-18T21:21:14.921Z,0.20
2018-10-18T21:23:42.331Z,0.20
2018-10-18T21:26:09.918Z,0.17
2018-10-18T21:28:37.673Z,0.10
2018-10-18T21:31:05.459Z,0.30
2018-10-18T21:33:33.005Z,0.30
2018-10-18T21:36:00.767Z,0.40
2018-10-18T21:38:28.297Z,0.10
2018-10-18T21:40:55.848Z,0.20
2018-10-18T21:43:23.635Z,0.20
2018-10-18T21:45:55.549Z,0.20
2018-10-18T21:48:23.346Z,0.20
2018-10-18T21:50:51.162Z,0.27
2018-10-18T21:53:18.631Z,0.20
2018-10-18T21:55:46.115Z,0.10
2018-10-18T21:58:13.985Z,0.13
2018-10-18T22:00:44.927Z,0.30
2018-10-18T22:03:12.597Z,0.10
2018-10-18T22:05:40.484Z,0.40
2018-10-18T22:08:07.956Z,0.20
2018-10-18T22:10:35.420Z,0.10
2018-10-18T22:13:03.406Z,0.20
2018-10-18T22:15:30.904Z,0.20
2018-10-18T22:17:58.404Z,0.20
2018-10-18T22:20:26.224Z,0.30
2018-10-18T22:22:53.785Z,0.20
2018-10-18T22:25:21.268Z,0.20
2018-10-18T22:27:49.062Z,0.30
2018-10-18T22:30:16.544Z,0.10
2018-10-18T22:32:44.156Z,0.20
2018-10-18T22:35:12.049Z,0.40
2018-10-18T22:37:39.490Z,0.10
2018-10-18T22:40:07.271Z,0.40
2018-10-18T22:42:35.082Z,0.17
2018-10-18T22:45:03.573Z,0.20
2018-10-18T22:47:31.054Z,0.20
2018-10-18T22:49:58.844Z,0.20
2018-10-18T22:52:26.304Z,0.20
2018-10-18T22:54:53.747Z,0.10
2018-10-18T22:57:21.505Z,0.10
2018-10-18T22:59:48.980Z,0.20
2018-10-18T23:02:16.465Z,0.20
2018-10-18T23:04:44.326Z,0.17
2018-10-18T23:07:11.845Z,0.27
2018-10-18T23:09:39.239Z,0.20
2018-10-18T23:12:07.138Z,0.23
2018-10-18T23:14:34.648Z,0.20
2018-10-18T23:17:02.237Z,0.20
2018-10-18T23:19:29.999Z,0.20
2018-10-18T23:21:57.443Z,0.20
2018-10-18T23:24:24.849Z,0.20
2018-10-18T23:26:52.731Z,0.13
2018-10-18T23:29:20.191Z,0.30
2018-10-18T23:31:47.610Z,0.30
2018-10-18T23:34:15.372Z,0.20
2018-10-18T23:36:42.841Z,0.10
2018-10-18T23:39:10.839Z,0.10
2018-10-18T23:41:38.914Z,0.30
2018-10-18T23:44:06.392Z,0.10
2018-10-18T23:46:33.809Z,0.10
2018-10-18T23:49:01.687Z,0.10
2018-10-18T23:51:29.128Z,0.23
2018-10-18T23:53:56.572Z,0.30
2018-10-18T23:56:27.276Z,0.10
2018-10-18T23:58:54.884Z,0.10
